Terminal Aerodrome Forecast
Issued by NWS Upton, NY

Home | Current Version | Previous Version | Text Only | Print | Product List | Glossary On
Versions: 1 2 3 4 5 6 7 8 9 10 11 12 13 14 15 16 17 18 19 20 21 22 23 24 25 26 27 28 29 30 31 32 33 34 35 36 37 38 39
000
FTUS41 KOKX 220819 AAB
TAFEWR
TAF AMD
KEWR 220819Z 2208/2312 VRB02KT 2SM BR OVC003
     FM221500 06007KT 2SM BR OVC009
     FM222300 06014G23KT 3SM -RA BR OVC007
     FM230700 06023G35KT 3SM -RA BR OVC007=

USA.gov is the U.S. government's official web portal to all federal, state and local government web resources and services.